Terminal Aerodrome Forecast
Issued by NWS Cleveland, OH

Home | Current Version | Previous Version | Text Only | Print | Product List | Glossary On
Versions: 1 2 3 4 5 6 7 8 9 10 11 12 13 14 15 16 17 18 19 20 21 22 23 24 25 26 27 28 29 30 31 32 33
000
FTUS41 KCLE 050943 AAB
TAFCLE
TAF AMD
KCLE 050943Z 0510/0612 20004KT P6SM SCT120
      TEMPO 0511/0513 5SM BR
     FM051900 04006KT P6SM SCT050
     FM060200 16003KT P6SM BKN250=

USA.gov is the U.S. government's official web portal to all federal, state and local government web resources and services.